Time;durP1;ratioP1;P1;durP2;ratioP2;P2;SDS_P1;SDS_P2;PMS_P1;PMS_P2;Temp;Humidity;BMP_temperature;BMP_pressure;BME280_temperature;BME280_humidity;BME280_pressure;Samples;Min_cycle;Max_cycle;Signal;HPM_P1;HPM_P2
2024/01/30 00:02:14;;;;;;;7.70;7.40;;;21.30;46.20;;;;;;5015032;28;20477;-65
2024/01/30 00:04:41;;;;;;;7.90;7.60;;;21.20;46.10;;;;;;5015386;28;20504;-65
2024/01/30 00:07:07;;;;;;;8.13;7.73;;;21.20;46.20;;;;;;5014922;28;20509;-65
2024/01/30 00:09:34;;;;;;;7.20;6.97;;;21.20;46.10;;;;;;5015064;28;20489;-64
2024/01/30 00:12:03;;;;;;;7.50;7.20;;;21.20;46.20;;;;;;5014873;28;20535;-65
2024/01/30 00:14:30;;;;;;;7.50;7.30;;;21.20;46.20;;;;;;5014836;28;20580;-65
2024/01/30 00:16:57;;;;;;;8.27;7.77;;;21.20;46.20;;;;;;5014987;28;20474;-64
2024/01/30 00:19:23;;;;;;;6.90;6.60;;;21.20;46.20;;;;;;5014886;28;20490;-65
2024/01/30 00:21:50;;;;;;;7.90;7.50;;;21.20;46.20;;;;;;5014846;28;20926;-64
2024/01/30 00:24:18;;;;;;;7.10;6.90;;;21.10;46.10;;;;;;5014592;28;20481;-65
2024/01/30 00:26:44;;;;;;;8.07;7.70;;;21.10;46.20;;;;;;5014798;28;20520;-65
2024/01/30 00:29:19;;;;;;;7.43;7.23;;;21.10;46.20;;;;;;5014982;28;20489;-65
2024/01/30 00:31:45;;;;;;;7.53;7.23;;;21.10;46.20;;;;;;5014480;28;20442;-65
2024/01/30 00:34:12;;;;;;;7.20;7.00;;;21.10;46.20;;;;;;5014593;28;20477;-64
2024/01/30 00:36:39;;;;;;;8.17;7.77;;;21.10;46.20;;;;;;5014685;28;20477;-67
2024/01/30 00:39:08;;;;;;;7.80;7.50;;;21.10;46.20;;;;;;5014694;28;20493;-65
2024/01/30 00:41:35;;;;;;;7.97;7.67;;;21.10;46.30;;;;;;5014622;28;20469;-65
2024/01/30 00:44:02;;;;;;;7.17;6.90;;;21.10;46.20;;;;;;5014544;28;20481;-65
2024/01/30 00:46:30;;;;;;;8.10;7.70;;;21.10;46.20;;;;;;5014429;28;20517;-65
2024/01/30 00:48:57;;;;;;;8.00;7.70;;;21.10;46.20;;;;;;5014349;28;20502;-65
2024/01/30 00:51:24;;;;;;;8.50;8.20;;;21.10;46.30;;;;;;5014292;28;20831;-65
2024/01/30 00:53:51;;;;;;;7.70;7.40;;;21.00;46.20;;;;;;5014331;28;20468;-65
2024/01/30 00:56:19;;;;;;;7.57;7.37;;;21.10;46.30;;;;;;5014241;28;20482;-66
2024/01/30 00:58:45;;;;;;;8.13;7.73;;;21.10;46.30;;;;;;5014329;28;20519;-65
2024/01/30 01:01:12;;;;;;;7.60;7.30;;;21.10;46.30;;;;;;5014104;28;20941;-65
2024/01/30 01:03:43;;;;;;;7.23;7.03;;;21.00;46.20;;;;;;5014117;28;20452;-65
2024/01/30 01:06:10;;;;;;;8.17;7.77;;;21.00;46.30;;;;;;5014315;28;20681;-65
2024/01/30 01:08:37;;;;;;;8.53;8.10;;;21.10;46.30;;;;;;5014041;28;21048;-65
2024/01/30 01:11:04;;;;;;;8.90;8.53;;;21.10;46.30;;;;;;5013906;28;20470;-65
2024/01/30 01:13:31;;;;;;;7.00;6.70;;;21.00;46.20;;;;;;5013962;28;20438;-66
2024/01/30 01:15:58;;;;;;;7.83;7.53;;;21.00;46.20;;;;;;5013993;28;20476;-65
2024/01/30 01:18:25;;;;;;;6.80;6.60;;;21.00;46.20;;;;;;5014021;28;20481;-65
2024/01/30 01:20:53;;;;;;;7.67;7.37;;;21.00;46.30;;;;;;5013453;28;20489;-64
2024/01/30 01:23:20;;;;;;;7.70;7.40;;;21.00;46.30;;;;;;5013881;28;20478;-65
2024/01/30 01:25:47;;;;;;;7.57;7.27;;;21.00;46.30;;;;;;5013738;28;20474;-65
2024/01/30 01:28:13;;;;;;;8.30;8.00;;;21.00;46.30;;;;;;5013621;28;20517;-65
2024/01/30 01:30:40;;;;;;;7.30;7.00;;;21.00;46.30;;;;;;5013562;28;20929;-65
2024/01/30 01:33:07;;;;;;;8.57;8.17;;;21.00;46.40;;;;;;5013636;28;20466;-65
2024/01/30 01:35:34;;;;;;;7.50;7.20;;;21.00;46.40;;;;;;5013661;28;20446;-65
2024/01/30 01:38:03;;;;;;;8.10;7.87;;;21.00;46.40;;;;;;5013683;28;20950;-66
2024/01/30 01:40:30;;;;;;;7.97;7.67;;;21.00;46.40;;;;;;5013305;28;20466;-65
2024/01/30 01:42:57;;;;;;;7.87;7.47;;;21.00;46.40;;;;;;5013443;28;20853;-65
2024/01/30 01:45:24;;;;;;;8.13;7.83;;;21.00;46.40;;;;;;5012531;28;20956;-65
2024/01/30 01:47:52;;;;;;;7.70;7.40;;;21.00;46.40;;;;;;5013405;28;20524;-65
2024/01/30 01:50:20;;;;;;;9.40;8.70;;;21.00;46.40;;;;;;5013058;28;20560;-65
2024/01/30 01:52:48;;;;;;;8.90;8.60;;;20.90;46.30;;;;;;5013378;28;20807;-65
2024/01/30 01:55:18;;;;;;;8.40;8.00;;;20.90;46.40;;;;;;5013292;28;20477;-65
2024/01/30 01:57:45;;;;;;;7.80;7.60;;;20.90;46.40;;;;;;5013441;28;20442;-65
2024/01/30 02:00:14;;;;;;;7.97;7.63;;;20.90;46.40;;;;;;5012827;28;20462;-65
2024/01/30 02:02:42;;;;;;;8.17;7.77;;;20.90;46.40;;;;;;5012912;28;20446;-65
2024/01/30 02:05:09;;;;;;;8.03;7.70;;;21.00;46.50;;;;;;5013188;28;20857;-65
2024/01/30 02:07:36;;;;;;;8.23;7.93;;;20.90;46.40;;;;;;5013182;28;20485;-64
2024/01/30 02:10:04;;;;;;;7.20;7.00;;;20.90;46.40;;;;;;5012700;28;20580;-65
2024/01/30 02:12:33;;;;;;;7.80;7.50;;;20.90;46.40;;;;;;5012852;28;20496;-65
2024/01/30 02:14:59;;;;;;;8.20;7.50;;;20.90;46.40;;;;;;5013012;28;20446;-65
2024/01/30 02:17:26;;;;;;;7.60;7.30;;;20.90;46.40;;;;;;5012911;28;20945;-65
2024/01/30 02:19:53;;;;;;;7.90;7.60;;;20.90;46.40;;;;;;5012528;28;20814;-65
2024/01/30 02:22:23;;;;;;;8.60;8.00;;;20.90;46.50;;;;;;5012862;28;20889;-66
2024/01/30 02:24:50;;;;;;;8.13;7.57;;;20.90;46.40;;;;;;5012748;28;20477;-65
2024/01/30 02:27:17;;;;;;;8.00;7.70;;;20.90;46.50;;;;;;5012627;28;20517;-65
2024/01/30 02:29:43;;;;;;;8.07;7.77;;;20.90;46.50;;;;;;5012502;28;20504;-65
2024/01/30 02:32:10;;;;;;;8.03;7.80;;;20.90;46.50;;;;;;5012309;28;20470;-65
2024/01/30 02:34:37;;;;;;;8.63;8.10;;;20.80;46.40;;;;;;5012752;28;20885;-65
2024/01/30 02:37:04;;;;;;;8.13;7.83;;;20.80;46.50;;;;;;5012609;28;20866;-65
2024/01/30 02:39:33;;;;;;;8.20;7.80;;;20.90;46.60;;;;;;5012104;28;20552;-65
2024/01/30 02:42:00;;;;;;;7.40;7.20;;;20.80;46.50;;;;;;5012343;28;20485;-65
2024/01/30 02:44:26;;;;;;;8.57;8.17;;;20.80;46.50;;;;;;5012565;28;20442;-65
2024/01/30 02:46:55;;;;;;;7.67;7.37;;;20.90;46.60;;;;;;5012293;28;20482;-65
2024/01/30 02:49:22;;;;;;;8.20;7.90;;;20.80;46.60;;;;;;5012059;28;20474;-65
2024/01/30 02:51:48;;;;;;;8.07;7.77;;;20.80;46.60;;;;;;5012287;28;20442;-65
2024/01/30 02:54:15;;;;;;;8.20;7.80;;;20.80;46.60;;;;;;5012241;28;20873;-65
2024/01/30 02:56:43;;;;;;;8.23;7.93;;;20.80;46.60;;;;;;5012140;28;20478;-65
2024/01/30 02:59:10;;;;;;;9.80;9.50;;;20.90;46.70;;;;;;5011836;28;20486;-65
2024/01/30 03:01:44;;;;;;;8.00;7.70;;;20.80;46.60;;;;;;5012026;28;20473;-65
2024/01/30 03:04:11;;;;;;;8.27;7.97;;;20.80;46.60;;;;;;5012439;28;20477;-65
2024/01/30 03:06:38;;;;;;;8.10;7.80;;;20.80;46.50;;;;;;5012167;28;20456;-65
2024/01/30 03:09:05;;;;;;;8.57;8.23;;;20.80;46.60;;;;;;5011760;28;20512;-65
2024/01/30 03:11:32;;;;;;;8.67;8.37;;;20.80;46.60;;;;;;5012093;28;20449;-65
2024/01/30 03:14:00;;;;;;;8.63;8.33;;;20.80;46.60;;;;;;5012086;28;20863;-66
2024/01/30 03:16:27;;;;;;;8.77;8.37;;;20.80;46.70;;;;;;5011972;28;20484;-66
2024/01/30 03:18:54;;;;;;;8.40;8.10;;;20.80;46.60;;;;;;5011737;28;20485;-65
2024/01/30 03:21:21;;;;;;;8.27;7.97;;;20.80;46.60;;;;;;5012108;28;20929;-65
2024/01/30 03:23:48;;;;;;;8.57;8.13;;;20.80;46.70;;;;;;5011866;28;20876;-65
2024/01/30 03:26:15;;;;;;;8.30;8.00;;;20.80;46.70;;;;;;5011931;28;20542;-65
2024/01/30 03:28:42;;;;;;;8.03;7.73;;;20.80;46.70;;;;;;5011713;28;20493;-65
2024/01/30 03:31:11;;;;;;;8.53;8.13;;;20.80;46.70;;;;;;5012048;28;20478;-65
2024/01/30 03:33:38;;;;;;;7.90;7.60;;;20.80;46.70;;;;;;5011852;28;20473;-65
2024/01/30 03:36:06;;;;;;;8.00;7.60;;;20.80;46.70;;;;;;5011946;28;20441;-65
2024/01/30 03:38:33;;;;;;;7.37;7.10;;;20.80;46.70;;;;;;5011724;28;20492;-65
2024/01/30 03:41:00;;;;;;;8.27;7.87;;;20.80;46.70;;;;;;5011846;28;20474;-65
2024/01/30 03:43:27;;;;;;;8.13;7.83;;;20.70;46.70;;;;;;5011923;28;20478;-65
2024/01/30 03:45:54;;;;;;;7.90;7.60;;;20.70;46.70;;;;;;5011575;28;20481;-65
2024/01/30 03:48:23;;;;;;;7.40;7.20;;;20.70;46.70;;;;;;5011424;28;20911;-65
2024/01/30 03:50:49;;;;;;;7.67;7.37;;;20.70;46.60;;;;;;5011880;28;20434;-65
2024/01/30 03:53:16;;;;;;;8.13;7.83;;;20.70;46.70;;;;;;5011973;28;20473;-65
2024/01/30 03:55:43;;;;;;;6.80;6.50;;;20.70;46.70;;;;;;5011645;28;20787;-65
2024/01/30 03:58:10;;;;;;;8.33;7.93;;;20.70;46.70;;;;;;5011594;28;20496;-65
2024/01/30 04:00:37;;;;;;;8.03;7.73;;;20.70;46.70;;;;;;5011692;28;20474;-65
2024/01/30 04:03:04;;;;;;;8.00;7.70;;;20.70;46.70;;;;;;5011668;28;21031;-65
2024/01/30 04:05:32;;;;;;;8.70;8.20;;;20.70;46.60;;;;;;5011348;28;20474;-65
2024/01/30 04:08:00;;;;;;;7.90;7.60;;;20.70;46.60;;;;;;5013133;28;20572;-65
2024/01/30 04:10:27;;;;;;;8.13;7.83;;;20.70;46.70;;;;;;5015150;28;20462;-65
2024/01/30 04:12:53;;;;;;;7.60;7.30;;;20.70;46.70;;;;;;5015193;28;20473;-65
2024/01/30 04:15:20;;;;;;;7.40;7.20;;;20.70;46.70;;;;;;5014934;28;20478;-65
2024/01/30 04:17:48;;;;;;;7.57;7.27;;;20.70;46.70;;;;;;5015102;28;20473;-65
2024/01/30 04:20:16;;;;;;;7.40;7.10;;;20.70;46.70;;;;;;5015047;28;20477;-65
2024/01/30 04:22:45;;;;;;;7.23;7.03;;;20.70;47.20;;;;;;5014876;28;20794;-65
2024/01/30 04:25:12;;;;;;;7.30;7.03;;;20.70;46.70;;;;;;5014822;28;20485;-65
2024/01/30 04:27:39;;;;;;;8.60;8.30;;;20.70;46.70;;;;;;5014805;28;21076;-65
2024/01/30 04:30:07;;;;;;;8.33;7.93;;;20.70;46.80;;;;;;5014802;28;20497;-65
2024/01/30 04:32:34;;;;;;;8.00;7.70;;;20.70;46.70;;;;;;5014936;28;20481;-65
2024/01/30 04:35:01;;;;;;;7.33;7.13;;;20.70;46.80;;;;;;5014594;28;20458;-65
2024/01/30 04:37:27;;;;;;;8.57;8.20;;;20.70;46.70;;;;;;4995408;28;20439;-66
2024/01/30 04:39:56;;;;;;;7.30;7.10;;;20.70;46.80;;;;;;4995058;28;20490;-65
2024/01/30 04:42:23;;;;;;;7.70;7.40;;;20.70;46.80;;;;;;4994980;28;20862;-65
2024/01/30 04:44:50;;;;;;;7.93;7.63;;;20.60;46.70;;;;;;4996216;28;20511;-65
2024/01/30 04:47:17;;;;;;;9.20;8.80;;;20.60;46.70;;;;;;5014460;28;21025;-65
2024/01/30 04:49:44;;;;;;;8.20;7.87;;;20.70;46.80;;;;;;5014383;28;20502;-65
2024/01/30 04:52:11;;;;;;;7.67;7.37;;;20.60;46.80;;;;;;5014344;28;20891;-65
2024/01/30 04:54:37;;;;;;;8.10;7.70;;;20.60;46.70;;;;;;5014183;28;20438;-65
2024/01/30 04:57:09;;;;;;;7.43;7.23;;;20.60;46.60;;;;;;5014363;28;20480;-65
2024/01/30 04:59:36;;;;;;;8.83;8.50;;;20.60;46.70;;;;;;5014238;28;20465;-66
2024/01/30 05:02:03;;;;;;;9.00;8.63;;;20.60;46.60;;;;;;5014199;28;20450;-65
2024/01/30 05:04:30;;;;;;;8.60;8.27;;;20.70;46.70;;;;;;5014032;28;20438;-65
2024/01/30 05:06:57;;;;;;;7.80;7.60;;;20.70;46.80;;;;;;5014110;28;20481;-65
2024/01/30 05:09:24;;;;;;;7.60;7.40;;;20.70;46.80;;;;;;5014201;28;20898;-65
2024/01/30 05:11:51;;;;;;;7.90;7.60;;;20.60;46.80;;;;;;5014030;28;20474;-65
2024/01/30 05:14:19;;;;;;;9.27;8.87;;;20.60;46.80;;;;;;5013680;28;20476;-65
2024/01/30 05:16:47;;;;;;;9.10;8.70;;;20.60;46.70;;;;;;5013546;28;20813;-65
2024/01/30 05:19:14;;;;;;;8.67;8.33;;;20.60;46.80;;;;;;5013825;28;20528;-65
2024/01/30 05:21:42;;;;;;;7.70;7.40;;;20.60;46.80;;;;;;5013802;28;20452;-65
2024/01/30 05:24:10;;;;;;;8.73;8.43;;;20.70;46.90;;;;;;5013691;28;20470;-66
2024/01/30 05:26:37;;;;;;;7.90;7.70;;;20.70;46.90;;;;;;5013951;28;21026;-65
2024/01/30 05:29:04;;;;;;;8.20;7.97;;;20.60;46.80;;;;;;5013819;28;21159;-65
2024/01/30 05:31:32;;;;;;;8.37;8.07;;;20.60;46.80;;;;;;5013649;28;20486;-65
2024/01/30 05:33:59;;;;;;;8.67;8.47;;;20.60;46.90;;;;;;5013528;28;20446;-65
2024/01/30 05:36:26;;;;;;;8.10;7.90;;;20.70;47.00;;;;;;5013871;28;20485;-66
2024/01/30 05:38:53;;;;;;;8.53;8.23;;;20.60;46.80;;;;;;5013546;28;20973;-65
2024/01/30 05:41:20;;;;;;;10.27;9.57;;;20.70;46.50;;;;;;5013600;28;20469;-65
2024/01/30 05:43:47;;;;;;;14.23;10.67;;;20.70;46.90;;;;;;5013399;28;20438;-65
2024/01/30 05:46:14;;;;;;;14.67;13.20;;;20.70;48.10;;;;;;5013453;28;20488;-65
2024/01/30 05:48:43;;;;;;;12.23;11.40;;;20.70;49.40;;;;;;5037657;23;20520;-70
2024/01/30 05:51:10;;;;;;;13.43;12.20;;;20.70;50.80;;;;;;5032725;28;20952;-70
2024/01/30 05:53:36;;;;;;;20.83;11.53;;;20.70;51.70;;;;;;5032643;28;20878;-70
2024/01/30 05:56:04;;;;;;;16.80;10.20;;;20.70;52.20;;;;;;5033121;28;20487;-70
2024/01/30 05:58:31;;;;;;;16.47;11.10;;;20.80;52.50;;;;;;5032774;28;20863;-70
2024/01/30 06:00:58;;;;;;;21.33;13.30;;;20.80;52.40;;;;;;5013196;28;20438;-69
2024/01/30 06:03:25;;;;;;;20.33;12.83;;;20.80;52.80;;;;;;5012889;28;20481;-68
2024/01/30 06:05:53;;;;;;;13.43;12.40;;;20.80;52.90;;;;;;5012788;28;20850;-67
2024/01/30 06:08:20;;;;;;;12.33;11.20;;;20.80;53.50;;;;;;5012653;28;20510;-67
2024/01/30 06:10:47;;;;;;;18.00;13.57;;;20.80;52.80;;;;;;5012756;28;20486;-67
2024/01/30 06:13:15;;;;;;;13.70;11.40;;;20.80;52.40;;;;;;5012666;28;20863;-67
2024/01/30 06:15:42;;;;;;;12.90;11.60;;;20.80;51.90;;;;;;5004474;28;20833;-67
2024/01/30 06:18:09;;;;;;;11.50;10.60;;;20.80;51.60;;;;;;5012603;28;20466;-67
2024/01/30 06:20:36;;;;;;;12.90;11.40;;;20.80;51.50;;;;;;5012218;28;21013;-68
2024/01/30 06:23:04;;;;;;;12.27;10.67;;;20.80;51.20;;;;;;5012292;28;20444;-68
2024/01/30 06:25:31;;;;;;;13.90;12.60;;;20.80;50.90;;;;;;5012171;28;20881;-67
2024/01/30 06:27:58;;;;;;;14.03;13.07;;;20.80;50.70;;;;;;5012278;28;20469;-67
2024/01/30 06:30:25;;;;;;;15.63;10.80;;;20.80;50.50;;;;;;5011543;28;20502;-68
2024/01/30 06:32:52;;;;;;;10.67;9.63;;;20.80;50.30;;;;;;5012248;28;20443;-67
2024/01/30 06:35:19;;;;;;;16.10;13.63;;;20.80;50.20;;;;;;5012213;28;20474;-67
2024/01/30 06:37:46;;;;;;;11.20;10.40;;;20.80;50.00;;;;;;5012528;28;20474;-67
2024/01/30 06:40:15;;;;;;;11.20;10.50;;;20.80;49.80;;;;;;5012038;28;20909;-67
2024/01/30 06:42:41;;;;;;;10.83;9.90;;;20.80;49.60;;;;;;5011907;28;20478;-67
2024/01/30 06:45:09;;;;;;;10.40;9.57;;;20.80;49.50;;;;;;5012080;28;20469;-67
2024/01/30 06:47:36;;;;;;;10.87;9.23;;;20.80;49.30;;;;;;5011931;28;20481;-67
2024/01/30 06:50:03;;;;;;;9.37;8.57;;;20.80;49.20;;;;;;5011631;28;20485;-67
2024/01/30 06:52:30;;;;;;;11.43;9.73;;;20.80;49.10;;;;;;5011808;28;20782;-67
2024/01/30 06:54:57;;;;;;;11.00;9.67;;;20.80;49.00;;;;;;5011978;28;20477;-67
2024/01/30 06:57:27;;;;;;;9.43;8.63;;;20.80;48.90;;;;;;5011853;28;20484;-67
2024/01/30 06:59:55;;;;;;;9.03;8.43;;;20.80;48.80;;;;;;5011843;28;20517;-67
2024/01/30 07:02:22;;;;;;;11.27;9.73;;;20.80;48.70;;;;;;5011550;28;20478;-67
2024/01/30 07:04:49;;;;;;;16.67;9.30;;;20.80;48.60;;;;;;5011816;28;20864;-67
2024/01/30 07:07:16;;;;;;;10.03;9.40;;;20.80;48.50;;;;;;5011728;28;20446;-67
2024/01/30 07:09:43;;;;;;;12.00;8.87;;;20.80;48.40;;;;;;5003580;28;20509;-67
2024/01/30 07:12:10;;;;;;;9.70;8.57;;;20.80;48.30;;;;;;5011596;28;20499;-68
2024/01/30 07:14:38;;;;;;;8.87;8.27;;;20.80;48.30;;;;;;5011614;28;20474;-67
2024/01/30 07:17:06;;;;;;;10.10;9.30;;;20.80;48.20;;;;;;5011675;28;20465;-67
2024/01/30 07:19:34;;;;;;;9.00;8.30;;;20.80;48.10;;;;;;5011448;28;20465;-67
2024/01/30 07:22:01;;;;;;;10.50;9.80;;;20.80;48.00;;;;;;5011714;28;20489;-68
2024/01/30 07:24:28;;;;;;;13.47;9.50;;;20.70;47.90;;;;;;5011585;28;20509;-67
2024/01/30 07:26:55;;;;;;;9.67;9.27;;;20.80;47.90;;;;;;5011746;28;20477;-67
2024/01/30 07:29:22;;;;;;;9.90;9.10;;;20.70;47.70;;;;;;5011260;28;20517;-67
2024/01/30 07:31:50;;;;;;;10.30;9.73;;;20.70;47.70;;;;;;5011528;28;20445;-67
2024/01/30 07:34:17;;;;;;;11.20;10.43;;;20.70;47.60;;;;;;5011481;28;20497;-67
2024/01/30 07:36:44;;;;;;;10.00;9.40;;;20.70;47.60;;;;;;5003356;28;20442;-67
2024/01/30 07:39:11;;;;;;;10.93;10.10;;;20.70;47.50;;;;;;5011442;28;20880;-67
2024/01/30 07:41:38;;;;;;;11.27;10.67;;;20.70;47.50;;;;;;5011399;28;20477;-67
2024/01/30 07:44:05;;;;;;;10.27;9.60;;;20.70;47.40;;;;;;5014921;28;20442;-67
2024/01/30 07:46:32;;;;;;;10.13;9.57;;;20.70;47.40;;;;;;5015397;28;20816;-67
2024/01/30 07:49:00;;;;;;;10.03;9.30;;;20.70;47.30;;;;;;5014961;28;20517;-67
2024/01/30 07:51:28;;;;;;;10.47;9.97;;;20.70;47.30;;;;;;5015036;28;20890;-67
2024/01/30 07:53:55;;;;;;;10.07;9.43;;;20.70;47.20;;;;;;5015141;28;20504;-67
2024/01/30 07:56:22;;;;;;;10.50;9.83;;;20.70;47.20;;;;;;5015022;28;20473;-67
2024/01/30 07:58:49;;;;;;;10.90;10.10;;;20.70;47.10;;;;;;5014929;28;20465;-68
2024/01/30 08:01:16;;;;;;;9.80;9.00;;;20.70;47.10;;;;;;5015132;28;20869;-67
2024/01/30 08:03:43;;;;;;;10.37;9.77;;;20.70;47.00;;;;;;5014917;28;20882;-67
2024/01/30 08:06:11;;;;;;;10.87;10.07;;;20.70;47.00;;;;;;5014919;28;20875;-68
2024/01/30 08:08:38;;;;;;;9.90;9.37;;;20.70;47.00;;;;;;5014813;28;20524;-67
2024/01/30 08:11:05;;;;;;;10.10;9.40;;;20.70;46.90;;;;;;5014886;28;20810;-67
2024/01/30 08:13:32;;;;;;;9.47;8.87;;;20.70;46.90;;;;;;5014674;28;20971;-68
2024/01/30 08:15:59;;;;;;;9.83;9.40;;;20.70;46.90;;;;;;5015000;28;20470;-67
2024/01/30 08:18:26;;;;;;;11.07;10.10;;;20.70;46.80;;;;;;5014594;28;20477;-67
2024/01/30 08:20:53;;;;;;;9.70;9.23;;;20.70;47.30;;;;;;5014638;28;20475;-67
2024/01/30 08:23:21;;;;;;;9.63;9.13;;;20.70;46.70;;;;;;5014555;28;20484;-68
2024/01/30 08:25:48;;;;;;;9.90;9.40;;;20.70;46.70;;;;;;5006831;28;20484;-68
2024/01/30 08:28:15;;;;;;;9.97;9.20;;;20.70;46.70;;;;;;5014643;28;20484;-67
2024/01/30 08:30:42;;;;;;;9.50;9.10;;;20.70;46.70;;;;;;5014213;28;20995;-68
2024/01/30 08:33:08;;;;;;;8.10;7.77;;;20.70;46.60;;;;;;5014433;28;20948;-67
2024/01/30 08:35:35;;;;;;;8.53;8.13;;;20.70;46.60;;;;;;5014293;28;20530;-67
2024/01/30 08:38:03;;;;;;;9.70;9.30;;;20.70;46.60;;;;;;5014225;28;20478;-67
2024/01/30 08:40:31;;;;;;;9.63;9.23;;;20.70;46.50;;;;;;5014094;28;20458;-68
2024/01/30 08:42:58;;;;;;;9.20;8.80;;;20.70;46.50;;;;;;5014278;28;20517;-67
2024/01/30 08:45:25;;;;;;;9.20;8.60;;;20.60;46.40;;;;;;5014026;28;20473;-67
2024/01/30 08:47:52;;;;;;;9.43;8.93;;;20.60;46.40;;;;;;5014214;28;20484;-67
2024/01/30 08:50:19;;;;;;;8.47;8.17;;;20.60;46.40;;;;;;5014364;28;20536;-68
2024/01/30 08:52:46;;;;;;;9.00;8.50;;;20.60;46.30;;;;;;5013966;28;20450;-68
2024/01/30 08:55:13;;;;;;;9.33;8.93;;;20.70;46.40;;;;;;5013974;28;20470;-68
2024/01/30 08:57:41;;;;;;;10.13;9.63;;;20.70;46.40;;;;;;5013874;28;20889;-68
2024/01/30 09:00:10;;;;;;;9.20;8.80;;;20.60;46.30;;;;;;5013780;28;20490;-68
2024/01/30 09:02:36;;;;;;;9.47;9.00;;;20.60;46.20;;;;;;5013669;28;20453;-68
2024/01/30 09:05:04;;;;;;;9.57;9.10;;;20.70;46.30;;;;;;5013785;28;20485;-68
2024/01/30 09:07:30;;;;;;;8.70;8.40;;;20.60;46.20;;;;;;5013678;28;20511;-68
2024/01/30 09:09:58;;;;;;;9.60;9.10;;;20.60;46.20;;;;;;5013625;28;20516;-68
2024/01/30 09:12:24;;;;;;;9.80;9.30;;;20.60;46.20;;;;;;5013482;28;20449;-68
2024/01/30 09:14:53;;;;;;;9.60;9.20;;;20.70;46.80;;;;;;5013632;28;20476;-68
2024/01/30 09:17:20;;;;;;;9.43;9.13;;;20.60;46.10;;;;;;5013653;28;20816;-68
2024/01/30 09:19:47;;;;;;;10.20;9.77;;;20.60;46.10;;;;;;5013454;28;20889;-68
2024/01/30 09:22:14;;;;;;;10.90;10.30;;;20.60;46.10;;;;;;5013545;28;20478;-68
2024/01/30 09:24:41;;;;;;;10.67;10.27;;;20.60;46.10;;;;;;5013291;28;20474;-68
2024/01/30 09:27:08;;;;;;;8.93;8.60;;;20.60;46.00;;;;;;5013433;28;20477;-68
2024/01/30 09:29:36;;;;;;;9.47;9.17;;;20.60;46.00;;;;;;5013238;28;20673;-68
2024/01/30 09:32:06;;;;;;;9.47;9.20;;;20.60;46.00;;;;;;5013383;28;20445;-68
2024/01/30 09:34:33;;;;;;;10.10;9.70;;;20.60;46.00;;;;;;5013574;28;20438;-68
2024/01/30 09:37:00;;;;;;;10.10;9.30;;;20.60;45.90;;;;;;5013214;28;20473;-68
2024/01/30 09:39:27;;;;;;;9.27;8.73;;;20.60;45.90;;;;;;5013103;28;20458;-68
2024/01/30 09:42:03;;;;;;;9.50;9.10;;;20.60;45.90;;;;;;5013435;28;20470;-67
2024/01/30 09:44:31;;;;;;;9.73;9.43;;;20.60;45.90;;;;;;5013151;28;20452;-67
2024/01/30 09:47:03;;;;;;;9.90;9.20;;;20.60;45.90;;;;;;5013186;28;20448;-68
2024/01/30 09:49:33;;;;;;;9.83;9.43;;;20.60;45.90;;;;;;5012711;28;20493;-68
2024/01/30 09:52:01;;;;;;;9.43;9.13;;;20.60;45.90;;;;;;5012931;28;20521;-67
2024/01/30 09:54:31;;;;;;;9.53;9.17;;;20.60;45.80;;;;;;5012997;28;20469;-68
2024/01/30 09:56:58;;;;;;;9.07;8.77;;;20.60;45.80;;;;;;5012939;28;20470;-67
2024/01/30 09:59:25;;;;;;;9.87;9.47;;;20.60;45.80;;;;;;5013061;28;20486;-67
2024/01/30 10:01:52;;;;;;;9.87;9.50;;;20.60;45.80;;;;;;5005098;28;20478;-67
2024/01/30 10:04:19;;;;;;;10.30;10.00;;;20.60;45.80;;;;;;5012666;28;20485;-67
2024/01/30 10:06:48;;;;;;;10.00;9.70;;;20.60;45.80;;;;;;5012186;28;20442;-67
2024/01/30 10:09:15;;;;;;;9.60;8.90;;;20.60;45.80;;;;;;5012764;28;20954;-67
2024/01/30 10:11:42;;;;;;;10.07;9.57;;;20.60;45.70;;;;;;5014168;28;20474;-68
2024/01/30 10:14:09;;;;;;;11.27;10.57;;;20.60;45.70;;;;;;5012673;28;20466;-67
2024/01/30 10:16:36;;;;;;;10.03;9.73;;;20.60;45.70;;;;;;5012523;28;20442;-68
2024/01/30 10:19:03;;;;;;;10.80;10.40;;;20.60;45.70;;;;;;5012406;28;20490;-67
2024/01/30 10:21:31;;;;;;;10.70;10.20;;;20.60;45.70;;;;;;5012333;28;20820;-68
2024/01/30 10:24:00;;;;;;;10.23;9.93;;;20.60;45.60;;;;;;5013353;28;20494;-67
2024/01/30 10:26:29;;;;;;;9.80;9.60;;;20.60;45.70;;;;;;5012562;28;20474;-67
2024/01/30 10:28:56;;;;;;;10.20;9.90;;;20.60;45.70;;;;;;5012229;28;20472;-68
2024/01/30 10:31:24;;;;;;;10.73;10.13;;;20.60;45.70;;;;;;5012226;28;20474;-68
2024/01/30 10:33:50;;;;;;;10.50;10.00;;;20.60;45.60;;;;;;5011985;28;20516;-67
2024/01/30 10:36:19;;;;;;;9.20;8.90;;;20.60;45.60;;;;;;5012236;28;20478;-68
2024/01/30 10:38:47;;;;;;;9.90;9.50;;;20.60;45.60;;;;;;5011984;28;20478;-68
2024/01/30 10:41:26;;;;;;;9.90;9.50;;;20.50;46.10;;;;;;5012339;28;20475;-68
2024/01/30 10:44:10;;;;;;;10.40;10.00;;;20.60;45.60;;;;;;5004205;28;20465;-68
2024/01/30 10:46:39;;;;;;;9.87;9.47;;;20.60;45.60;;;;;;5012081;28;20489;-67
2024/01/30 10:49:06;;;;;;;9.67;9.40;;;20.60;45.60;;;;;;5011766;28;20502;-67
2024/01/30 10:51:35;;;;;;;9.47;9.17;;;20.60;45.60;;;;;;5011894;28;20442;-67
2024/01/30 10:54:04;;;;;;;9.90;9.60;;;20.50;45.50;;;;;;5011996;28;20528;-67
2024/01/30 10:56:34;;;;;;;9.80;9.30;;;20.50;45.50;;;;;;5011935;28;20868;-67
2024/01/30 10:59:01;;;;;;;9.20;8.90;;;20.60;45.50;;;;;;5011834;28;20973;-67
2024/01/30 11:01:29;;;;;;;9.07;8.77;;;20.60;45.50;;;;;;5012008;28;20482;-68
2024/01/30 11:03:57;;;;;;;9.53;9.23;;;20.60;45.50;;;;;;5011754;28;20466;-67
2024/01/30 11:06:24;;;;;;;8.97;8.57;;;20.60;45.40;;;;;;5011894;28;20448;-68
2024/01/30 11:09:03;;;;;;;9.13;8.83;;;20.60;45.40;;;;;;5011638;28;20500;-68
2024/01/30 11:11:32;;;;;;;10.10;9.73;;;20.60;45.40;;;;;;5011616;28;20481;-67
2024/01/30 11:14:02;;;;;;;9.80;9.50;;;20.60;45.40;;;;;;5011633;28;20500;-67
2024/01/30 11:16:33;;;;;;;9.80;9.50;;;20.60;45.40;;;;;;5011606;28;20448;-68
2024/01/30 11:19:02;;;;;;;9.67;9.27;;;20.60;45.40;;;;;;5011718;28;20497;-67
2024/01/30 11:21:28;;;;;;;9.73;9.43;;;20.60;45.40;;;;;;5011468;28;20533;-68
2024/01/30 11:23:56;;;;;;;9.07;8.63;;;20.50;45.30;;;;;;5011569;28;20477;-67
2024/01/30 11:26:28;;;;;;;8.87;8.67;;;20.60;45.40;;;;;;5011532;28;20449;-68
2024/01/30 11:28:57;;;;;;;9.53;9.23;;;20.60;45.40;;;;;;5003670;28;20469;-67
2024/01/30 11:31:24;;;;;;;8.67;8.37;;;20.60;45.40;;;;;;5011526;28;20478;-68
2024/01/30 11:33:54;;;;;;;8.50;8.20;;;20.60;45.40;;;;;;5011438;28;20470;-68
2024/01/30 11:36:25;;;;;;;9.90;9.57;;;20.60;45.40;;;;;;5011558;28;20450;-67
2024/01/30 11:38:51;;;;;;;9.50;9.20;;;20.50;45.30;;;;;;5011286;28;20481;-67
2024/01/30 11:41:19;;;;;;;9.17;8.67;;;20.60;45.40;;;;;;5011453;28;20466;-68
2024/01/30 11:43:52;;;;;;;10.00;9.70;;;20.60;45.30;;;;;;5011361;28;20516;-68
2024/01/30 11:46:21;;;;;;;9.00;8.70;;;20.60;45.30;;;;;;5011322;28;20968;-68
2024/01/30 11:48:48;;;;;;;9.70;9.50;;;20.60;45.30;;;;;;5011213;28;20837;-68
2024/01/30 11:51:15;;;;;;;9.83;9.40;;;20.50;45.30;;;;;;5046588;22;21020;-64
2024/01/30 11:53:42;;;;;;;8.57;8.37;;;20.60;45.30;;;;;;5027591;28;20437;-65
2024/01/30 11:56:09;;;;;;;9.40;9.10;;;20.50;45.20;;;;;;5025007;28;20929;-64
2024/01/30 11:58:36;;;;;;;8.63;8.33;;;20.50;45.20;;;;;;5021703;28;20503;-64
2024/01/30 12:01:03;;;;;;;8.83;8.53;;;20.50;45.20;;;;;;5023800;28;20488;-65
2024/01/30 12:03:32;;;;;;;9.57;9.17;;;20.50;45.20;;;;;;5022553;28;20476;-66
2024/01/30 12:05:59;;;;;;;9.40;9.10;;;20.50;45.20;;;;;;5023247;28;20499;-64
2024/01/30 12:08:27;;;;;;;8.97;8.57;;;20.50;45.20;;;;;;5022697;28;20544;-65
2024/01/30 12:10:58;;;;;;;7.80;7.60;;;20.50;45.20;;;;;;5019133;28;20509;-65
2024/01/30 12:13:26;;;;;;;8.60;8.30;;;20.50;45.20;;;;;;5026732;28;20456;-64
2024/01/30 12:15:53;;;;;;;7.97;7.77;;;20.50;45.20;;;;;;5019572;28;20850;-64
2024/01/30 12:18:20;;;;;;;9.03;8.73;;;20.50;45.20;;;;;;5025955;28;20473;-64
2024/01/30 12:20:59;;;;;;;9.20;8.90;;;20.50;45.20;;;;;;5020160;28;20457;-64
2024/01/30 12:23:27;;;;;;;8.47;8.27;;;20.50;45.20;;;;;;5026745;28;20453;-65
2024/01/30 12:25:54;;;;;;;8.80;8.50;;;20.50;45.20;;;;;;5019209;28;20473;-65
2024/01/30 12:28:21;;;;;;;8.83;8.60;;;20.50;45.20;;;;;;5026609;28;20468;-64
2024/01/30 12:30:48;;;;;;;8.53;8.33;;;20.60;45.20;;;;;;5023370;28;20480;-64
2024/01/30 12:33:18;;;;;;;8.60;8.30;;;20.50;45.10;;;;;;5028527;28;20826;-64
2024/01/30 12:35:47;;;;;;;8.47;8.20;;;20.50;45.10;;;;;;5023972;28;20831;-64
2024/01/30 12:38:16;;;;;;;9.33;9.03;;;20.50;45.10;;;;;;5028349;28;20451;-64
2024/01/30 12:40:43;;;;;;;8.30;8.00;;;20.50;45.10;;;;;;5024025;28;20504;-64
2024/01/30 12:43:10;;;;;;;9.40;9.10;;;20.50;45.10;;;;;;5027706;28;21011;-64
2024/01/30 12:45:37;;;;;;;9.37;9.10;;;20.50;45.10;;;;;;5025007;28;20872;-65